To NAV CANADA Home Page Login to a new session Search on AWWS site Feedback and Comments Disclaimer Vers la page française équivalente Tips FAQ What's new on the site To the Forecasts and Observations / NOTAM section To "File a Flight Plan" website Publications and other links Update of the User's profile FIC Telephone Numbers My Weather Data Folder Route Weather Data Regional Weather Data Local Weather Data To the Forecasts and Observations / NOTAM section
Request Generated 04/18/2014 at 10:33:55 UTC . Weather information available at that time is displayed.

METAR/TAF

ABBOTSFORD/BC    

METAR CYXX 181000Z 18009KT 10SM BKN030 OVC070 07/06 A2990 RMK SC7AC1
SLP127=
SPECI CYXX 180947Z 18010KT 10SM BKN030 BKN070 07/06 A2990 RMK SC6AC1
SLP126=
METAR CYXX 180900Z 17009KT 8SM -RA FEW015 OVC030 07/06 A2988 RMK
SF1SC7 PCPN VRY LGT SLP120=
METAR CYXX 180800Z 19008KT 8SM -RA FEW015 BKN030 OVC040 07/06 A2987
RMK SF1SC6SC1 PCPN VRY LGT SLP115=

TAF CYXX 180538Z 1806/1906 21012G22KT 6SM -RA BR FEW010 SCT015 OVC030
TEMPO 1806/1807 5SM -RA BR BKN010 OVC015
FM180700 22012G22KT P6SM BKN030 TEMPO 1807/1813 5SM -SHRA BR
BKN020
FM181300 22012KT P6SM SCT030 BKN050
FM182000 22008KT P6SM FEW050
RMK NXT FCST BY 181200Z=
Your time UTC time
Weather data provided by Environment Canada and NAV CANADA